sensor_id;sensor_type;location;lat;lon;timestamp;P1;durP1;ratioP1;P2;durP2;ratioP2
18265;SDS011;9259;48.194;16.322;2023-05-25T00:01:38;6.47;;;3.53;;
18265;SDS011;9259;48.194;16.322;2023-05-25T00:04:10;8.40;;;3.00;;
18265;SDS011;9259;48.194;16.322;2023-05-25T00:06:41;6.93;;;3.30;;
18265;SDS011;9259;48.194;16.322;2023-05-25T00:09:10;4.83;;;2.70;;
18265;SDS011;9259;48.194;16.322;2023-05-25T00:11:38;8.63;;;3.17;;
18265;SDS011;9259;48.194;16.322;2023-05-25T00:14:05;5.90;;;3.13;;
18265;SDS011;9259;48.194;16.322;2023-05-25T00:16:33;7.27;;;2.93;;
18265;SDS011;9259;48.194;16.322;2023-05-25T00:19:02;7.50;;;3.30;;
18265;SDS011;9259;48.194;16.322;2023-05-25T00:21:32;7.57;;;3.60;;
18265;SDS011;9259;48.194;16.322;2023-05-25T00:24:03;7.47;;;3.10;;
18265;SDS011;9259;48.194;16.322;2023-05-25T00:26:30;6.37;;;3.13;;
18265;SDS011;9259;48.194;16.322;2023-05-25T00:28:58;8.07;;;3.33;;
18265;SDS011;9259;48.194;16.322;2023-05-25T00:31:26;8.33;;;3.37;;
18265;SDS011;9259;48.194;16.322;2023-05-25T00:33:54;8.87;;;3.33;;
18265;SDS011;9259;48.194;16.322;2023-05-25T00:36:21;8.63;;;2.77;;
18265;SDS011;9259;48.194;16.322;2023-05-25T00:38:51;6.13;;;2.80;;
18265;SDS011;9259;48.194;16.322;2023-05-25T00:41:18;6.67;;;3.30;;
18265;SDS011;9259;48.194;16.322;2023-05-25T00:43:47;6.43;;;3.43;;
18265;SDS011;9259;48.194;16.322;2023-05-25T00:46:14;8.63;;;2.83;;
18265;SDS011;9259;48.194;16.322;2023-05-25T00:48:42;7.80;;;3.30;;
18265;SDS011;9259;48.194;16.322;2023-05-25T00:51:10;6.20;;;2.97;;
18265;SDS011;9259;48.194;16.322;2023-05-25T00:53:39;8.57;;;3.70;;
18265;SDS011;9259;48.194;16.322;2023-05-25T00:56:09;6.40;;;2.97;;
18265;SDS011;9259;48.194;16.322;2023-05-25T00:58:40;5.50;;;3.17;;
18265;SDS011;9259;48.194;16.322;2023-05-25T01:01:11;14.73;;;3.77;;
18265;SDS011;9259;48.194;16.322;2023-05-25T01:03:41;5.40;;;3.27;;
18265;SDS011;9259;48.194;16.322;2023-05-25T01:06:13;6.07;;;3.00;;
18265;SDS011;9259;48.194;16.322;2023-05-25T01:08:43;6.97;;;3.23;;
18265;SDS011;9259;48.194;16.322;2023-05-25T01:11:16;7.17;;;3.10;;
18265;SDS011;9259;48.194;16.322;2023-05-25T01:13:47;7.00;;;2.73;;
18265;SDS011;9259;48.194;16.322;2023-05-25T01:16:18;6.33;;;3.07;;
18265;SDS011;9259;48.194;16.322;2023-05-25T01:18:46;6.37;;;3.50;;
18265;SDS011;9259;48.194;16.322;2023-05-25T01:21:20;5.60;;;2.80;;
18265;SDS011;9259;48.194;16.322;2023-05-25T01:23:52;8.73;;;3.13;;
18265;SDS011;9259;48.194;16.322;2023-05-25T01:26:26;5.70;;;3.00;;
18265;SDS011;9259;48.194;16.322;2023-05-25T01:28:57;8.47;;;3.70;;
18265;SDS011;9259;48.194;16.322;2023-05-25T01:31:27;9.80;;;3.03;;
18265;SDS011;9259;48.194;16.322;2023-05-25T01:33:55;7.50;;;3.47;;
18265;SDS011;9259;48.194;16.322;2023-05-25T01:36:25;8.43;;;3.47;;
18265;SDS011;9259;48.194;16.322;2023-05-25T01:38:52;7.80;;;3.30;;
18265;SDS011;9259;48.194;16.322;2023-05-25T01:41:20;6.20;;;3.17;;
18265;SDS011;9259;48.194;16.322;2023-05-25T01:43:47;6.87;;;3.17;;
18265;SDS011;9259;48.194;16.322;2023-05-25T01:46:17;9.50;;;3.50;;
18265;SDS011;9259;48.194;16.322;2023-05-25T01:48:51;7.77;;;3.50;;
18265;SDS011;9259;48.194;16.322;2023-05-25T01:51:28;11.33;;;3.93;;
18265;SDS011;9259;48.194;16.322;2023-05-25T01:54:02;10.57;;;3.40;;
18265;SDS011;9259;48.194;16.322;2023-05-25T01:56:35;5.77;;;3.07;;
18265;SDS011;9259;48.194;16.322;2023-05-25T01:59:04;11.73;;;4.03;;
18265;SDS011;9259;48.194;16.322;2023-05-25T02:01:34;11.97;;;3.53;;
18265;SDS011;9259;48.194;16.322;2023-05-25T02:04:02;5.80;;;3.17;;
18265;SDS011;9259;48.194;16.322;2023-05-25T02:06:31;10.70;;;4.30;;
18265;SDS011;9259;48.194;16.322;2023-05-25T02:09:01;10.87;;;3.63;;
18265;SDS011;9259;48.194;16.322;2023-05-25T02:11:29;10.60;;;3.73;;
18265;SDS011;9259;48.194;16.322;2023-05-25T02:13:56;9.43;;;3.70;;
18265;SDS011;9259;48.194;16.322;2023-05-25T02:16:23;9.67;;;3.53;;
18265;SDS011;9259;48.194;16.322;2023-05-25T02:18:51;7.80;;;3.03;;
18265;SDS011;9259;48.194;16.322;2023-05-25T02:21:19;6.90;;;3.47;;
18265;SDS011;9259;48.194;16.322;2023-05-25T02:23:48;7.27;;;3.30;;
18265;SDS011;9259;48.194;16.322;2023-05-25T02:26:15;7.30;;;3.30;;
18265;SDS011;9259;48.194;16.322;2023-05-25T02:28:43;8.73;;;3.63;;
18265;SDS011;9259;48.194;16.322;2023-05-25T02:31:10;8.57;;;3.97;;
18265;SDS011;9259;48.194;16.322;2023-05-25T02:33:37;10.33;;;3.40;;
18265;SDS011;9259;48.194;16.322;2023-05-25T02:36:05;7.47;;;3.23;;
18265;SDS011;9259;48.194;16.322;2023-05-25T02:38:33;7.30;;;4.00;;
18265;SDS011;9259;48.194;16.322;2023-05-25T02:41:02;9.27;;;4.07;;
18265;SDS011;9259;48.194;16.322;2023-05-25T02:43:29;9.83;;;3.67;;
18265;SDS011;9259;48.194;16.322;2023-05-25T02:45:57;9.00;;;4.20;;
18265;SDS011;9259;48.194;16.322;2023-05-25T02:48:24;9.87;;;3.93;;
18265;SDS011;9259;48.194;16.322;2023-05-25T02:50:52;15.77;;;3.83;;
18265;SDS011;9259;48.194;16.322;2023-05-25T02:53:21;11.53;;;5.13;;
18265;SDS011;9259;48.194;16.322;2023-05-25T02:55:48;10.60;;;4.37;;
18265;SDS011;9259;48.194;16.322;2023-05-25T02:58:18;11.07;;;4.73;;
18265;SDS011;9259;48.194;16.322;2023-05-25T03:00:46;9.93;;;4.37;;
18265;SDS011;9259;48.194;16.322;2023-05-25T03:03:15;8.70;;;4.00;;
18265;SDS011;9259;48.194;16.322;2023-05-25T03:05:42;9.57;;;3.80;;
18265;SDS011;9259;48.194;16.322;2023-05-25T03:08:10;9.10;;;4.30;;
18265;SDS011;9259;48.194;16.322;2023-05-25T03:10:38;7.20;;;4.40;;
18265;SDS011;9259;48.194;16.322;2023-05-25T03:13:05;8.40;;;3.93;;
18265;SDS011;9259;48.194;16.322;2023-05-25T03:15:34;11.47;;;4.60;;
18265;SDS011;9259;48.194;16.322;2023-05-25T03:18:01;13.20;;;4.57;;
18265;SDS011;9259;48.194;16.322;2023-05-25T03:20:29;13.20;;;4.50;;
18265;SDS011;9259;48.194;16.322;2023-05-25T03:22:57;9.53;;;4.30;;
18265;SDS011;9259;48.194;16.322;2023-05-25T03:25:24;8.17;;;3.77;;
18265;SDS011;9259;48.194;16.322;2023-05-25T03:27:52;11.37;;;4.93;;
18265;SDS011;9259;48.194;16.322;2023-05-25T03:30:20;8.87;;;4.40;;
18265;SDS011;9259;48.194;16.322;2023-05-25T03:32:49;10.17;;;4.80;;
18265;SDS011;9259;48.194;16.322;2023-05-25T03:35:17;10.67;;;4.47;;
18265;SDS011;9259;48.194;16.322;2023-05-25T03:37:44;14.27;;;4.43;;
18265;SDS011;9259;48.194;16.322;2023-05-25T03:40:12;10.47;;;4.87;;
18265;SDS011;9259;48.194;16.322;2023-05-25T03:42:39;8.57;;;4.30;;
18265;SDS011;9259;48.194;16.322;2023-05-25T03:45:07;11.23;;;4.40;;
18265;SDS011;9259;48.194;16.322;2023-05-25T03:47:35;12.00;;;4.90;;
18265;SDS011;9259;48.194;16.322;2023-05-25T03:50:04;16.43;;;5.03;;
18265;SDS011;9259;48.194;16.322;2023-05-25T03:52:32;9.73;;;4.37;;
18265;SDS011;9259;48.194;16.322;2023-05-25T03:55:00;13.20;;;4.87;;
18265;SDS011;9259;48.194;16.322;2023-05-25T03:57:29;12.67;;;4.87;;
18265;SDS011;9259;48.194;16.322;2023-05-25T03:59:57;14.20;;;4.70;;
18265;SDS011;9259;48.194;16.322;2023-05-25T04:02:24;15.23;;;3.57;;
18265;SDS011;9259;48.194;16.322;2023-05-25T04:04:52;11.13;;;3.83;;
18265;SDS011;9259;48.194;16.322;2023-05-25T04:07:22;10.30;;;4.90;;
18265;SDS011;9259;48.194;16.322;2023-05-25T04:09:51;12.43;;;3.90;;
18265;SDS011;9259;48.194;16.322;2023-05-25T04:12:19;12.10;;;3.97;;
18265;SDS011;9259;48.194;16.322;2023-05-25T04:14:46;8.47;;;4.17;;
18265;SDS011;9259;48.194;16.322;2023-05-25T04:17:14;14.03;;;4.40;;
18265;SDS011;9259;48.194;16.322;2023-05-25T04:19:42;9.23;;;4.23;;
18265;SDS011;9259;48.194;16.322;2023-05-25T04:22:09;9.30;;;3.77;;
18265;SDS011;9259;48.194;16.322;2023-05-25T04:24:38;8.93;;;3.80;;
18265;SDS011;9259;48.194;16.322;2023-05-25T04:27:05;10.87;;;4.17;;
18265;SDS011;9259;48.194;16.322;2023-05-25T04:29:34;12.07;;;3.50;;
18265;SDS011;9259;48.194;16.322;2023-05-25T04:32:01;11.60;;;3.93;;
18265;SDS011;9259;48.194;16.322;2023-05-25T04:34:30;11.47;;;3.40;;
18265;SDS011;9259;48.194;16.322;2023-05-25T04:36:58;9.30;;;3.50;;
18265;SDS011;9259;48.194;16.322;2023-05-25T04:39:30;11.43;;;4.10;;
18265;SDS011;9259;48.194;16.322;2023-05-25T04:41:59;7.80;;;3.30;;
18265;SDS011;9259;48.194;16.322;2023-05-25T04:44:28;9.95;;;3.75;;
18265;SDS011;9259;48.194;16.322;2023-05-25T04:46:56;10.45;;;3.55;;
18265;SDS011;9259;48.194;16.322;2023-05-25T04:49:25;10.93;;;3.53;;
18265;SDS011;9259;48.194;16.322;2023-05-25T04:51:53;7.95;;;3.20;;
18265;SDS011;9259;48.194;16.322;2023-05-25T04:54:20;6.95;;;3.53;;
18265;SDS011;9259;48.194;16.322;2023-05-25T04:56:48;8.03;;;2.77;;
18265;SDS011;9259;48.194;16.322;2023-05-25T04:59:17;6.53;;;3.33;;
18265;SDS011;9259;48.194;16.322;2023-05-25T05:01:44;5.07;;;2.90;;
18265;SDS011;9259;48.194;16.322;2023-05-25T05:04:11;5.95;;;2.67;;
18265;SDS011;9259;48.194;16.322;2023-05-25T05:06:40;7.57;;;3.53;;
18265;SDS011;9259;48.194;16.322;2023-05-25T05:09:08;7.22;;;3.10;;
18265;SDS011;9259;48.194;16.322;2023-05-25T05:11:36;10.15;;;2.95;;
18265;SDS011;9259;48.194;16.322;2023-05-25T05:14:03;9.80;;;2.78;;
18265;SDS011;9259;48.194;16.322;2023-05-25T05:16:32;10.82;;;3.17;;
18265;SDS011;9259;48.194;16.322;2023-05-25T05:19:00;8.15;;;3.08;;
18265;SDS011;9259;48.194;16.322;2023-05-25T05:21:27;12.18;;;3.25;;
18265;SDS011;9259;48.194;16.322;2023-05-25T05:23:55;6.28;;;2.85;;
18265;SDS011;9259;48.194;16.322;2023-05-25T05:26:22;6.63;;;2.97;;
18265;SDS011;9259;48.194;16.322;2023-05-25T05:28:50;8.48;;;2.80;;
18265;SDS011;9259;48.194;16.322;2023-05-25T05:31:18;4.82;;;2.90;;
18265;SDS011;9259;48.194;16.322;2023-05-25T05:33:46;7.10;;;2.70;;
18265;SDS011;9259;48.194;16.322;2023-05-25T05:36:14;7.53;;;2.70;;
18265;SDS011;9259;48.194;16.322;2023-05-25T05:38:41;7.72;;;2.97;;
18265;SDS011;9259;48.194;16.322;2023-05-25T05:41:11;5.07;;;2.47;;
18265;SDS011;9259;48.194;16.322;2023-05-25T05:43:39;7.75;;;2.80;;
18265;SDS011;9259;48.194;16.322;2023-05-25T05:46:07;7.10;;;2.60;;
18265;SDS011;9259;48.194;16.322;2023-05-25T05:48:35;7.55;;;2.97;;
18265;SDS011;9259;48.194;16.322;2023-05-25T05:51:04;7.53;;;2.85;;
18265;SDS011;9259;48.194;16.322;2023-05-25T05:53:32;5.60;;;2.50;;
18265;SDS011;9259;48.194;16.322;2023-05-25T05:56:01;4.93;;;2.90;;
18265;SDS011;9259;48.194;16.322;2023-05-25T05:58:28;7.10;;;2.88;;
18265;SDS011;9259;48.194;16.322;2023-05-25T06:00:56;8.45;;;2.83;;
18265;SDS011;9259;48.194;16.322;2023-05-25T06:03:24;7.05;;;2.75;;
18265;SDS011;9259;48.194;16.322;2023-05-25T06:05:53;5.88;;;3.20;;
18265;SDS011;9259;48.194;16.322;2023-05-25T06:08:22;6.97;;;3.08;;
18265;SDS011;9259;48.194;16.322;2023-05-25T06:10:49;7.82;;;2.53;;
18265;SDS011;9259;48.194;16.322;2023-05-25T06:13:17;6.15;;;3.05;;
18265;SDS011;9259;48.194;16.322;2023-05-25T06:15:44;9.23;;;2.92;;
18265;SDS011;9259;48.194;16.322;2023-05-25T06:18:14;6.32;;;2.92;;
18265;SDS011;9259;48.194;16.322;2023-05-25T06:20:48;5.18;;;2.47;;
18265;SDS011;9259;48.194;16.322;2023-05-25T06:23:15;8.05;;;2.67;;
18265;SDS011;9259;48.194;16.322;2023-05-25T06:25:47;6.07;;;2.83;;
18265;SDS011;9259;48.194;16.322;2023-05-25T06:28:14;8.45;;;2.95;;
18265;SDS011;9259;48.194;16.322;2023-05-25T06:30:42;7.43;;;3.08;;
18265;SDS011;9259;48.194;16.322;2023-05-25T06:33:09;6.03;;;2.75;;
18265;SDS011;9259;48.194;16.322;2023-05-25T06:35:37;11.27;;;3.58;;
18265;SDS011;9259;48.194;16.322;2023-05-25T06:38:04;12.63;;;3.45;;
18265;SDS011;9259;48.194;16.322;2023-05-25T06:40:32;4.93;;;2.38;;
18265;SDS011;9259;48.194;16.322;2023-05-25T06:43:00;8.45;;;2.97;;
18265;SDS011;9259;48.194;16.322;2023-05-25T06:45:28;7.05;;;2.97;;
18265;SDS011;9259;48.194;16.322;2023-05-25T06:47:55;11.00;;;3.75;;
18265;SDS011;9259;48.194;16.322;2023-05-25T06:50:23;8.45;;;2.75;;
18265;SDS011;9259;48.194;16.322;2023-05-25T06:52:51;5.35;;;2.72;;
18265;SDS011;9259;48.194;16.322;2023-05-25T06:55:18;8.30;;;2.80;;
18265;SDS011;9259;48.194;16.322;2023-05-25T06:57:46;5.38;;;2.65;;
18265;SDS011;9259;48.194;16.322;2023-05-25T07:00:15;9.35;;;3.03;;
18265;SDS011;9259;48.194;16.322;2023-05-25T07:02:43;6.47;;;2.88;;
18265;SDS011;9259;48.194;16.322;2023-05-25T07:05:11;5.90;;;3.00;;
18265;SDS011;9259;48.194;16.322;2023-05-25T07:07:40;7.05;;;2.70;;
18265;SDS011;9259;48.194;16.322;2023-05-25T07:10:07;5.22;;;2.70;;
18265;SDS011;9259;48.194;16.322;2023-05-25T07:12:35;6.45;;;2.88;;
18265;SDS011;9259;48.194;16.322;2023-05-25T07:15:03;7.72;;;2.78;;
18265;SDS011;9259;48.194;16.322;2023-05-25T07:17:33;7.07;;;2.45;;
18265;SDS011;9259;48.194;16.322;2023-05-25T07:20:02;5.13;;;2.65;;
18265;SDS011;9259;48.194;16.322;2023-05-25T07:22:30;9.88;;;2.97;;
18265;SDS011;9259;48.194;16.322;2023-05-25T07:24:57;4.97;;;2.90;;
18265;SDS011;9259;48.194;16.322;2023-05-25T07:27:25;5.97;;;2.75;;
18265;SDS011;9259;48.194;16.322;2023-05-25T07:30:01;10.02;;;3.13;;
18265;SDS011;9259;48.194;16.322;2023-05-25T07:32:29;4.88;;;2.63;;
18265;SDS011;9259;48.194;16.322;2023-05-25T07:34:58;7.32;;;2.78;;
18265;SDS011;9259;48.194;16.322;2023-05-25T07:37:25;5.28;;;2.40;;
18265;SDS011;9259;48.194;16.322;2023-05-25T07:39:53;6.13;;;2.90;;
18265;SDS011;9259;48.194;16.322;2023-05-25T07:42:20;4.78;;;2.67;;
18265;SDS011;9259;48.194;16.322;2023-05-25T07:44:48;5.38;;;2.58;;
18265;SDS011;9259;48.194;16.322;2023-05-25T07:47:18;6.68;;;2.88;;
18265;SDS011;9259;48.194;16.322;2023-05-25T07:49:45;4.55;;;2.50;;
18265;SDS011;9259;48.194;16.322;2023-05-25T07:52:14;6.32;;;3.03;;
18265;SDS011;9259;48.194;16.322;2023-05-25T07:54:43;7.40;;;2.60;;
18265;SDS011;9259;48.194;16.322;2023-05-25T07:57:11;6.10;;;2.20;;
18265;SDS011;9259;48.194;16.322;2023-05-25T07:59:38;4.60;;;2.85;;
18265;SDS011;9259;48.194;16.322;2023-05-25T08:02:06;4.57;;;2.55;;
18265;SDS011;9259;48.194;16.322;2023-05-25T08:04:34;4.20;;;2.47;;
18265;SDS011;9259;48.194;16.322;2023-05-25T08:07:02;7.07;;;2.72;;
18265;SDS011;9259;48.194;16.322;2023-05-25T08:09:31;6.15;;;2.42;;
18265;SDS011;9259;48.194;16.322;2023-05-25T08:11:58;4.10;;;2.30;;
18265;SDS011;9259;48.194;16.322;2023-05-25T08:14:26;4.38;;;2.10;;
18265;SDS011;9259;48.194;16.322;2023-05-25T08:16:56;4.35;;;2.45;;
18265;SDS011;9259;48.194;16.322;2023-05-25T08:19:24;6.10;;;2.50;;
18265;SDS011;9259;48.194;16.322;2023-05-25T08:21:51;5.22;;;2.75;;
18265;SDS011;9259;48.194;16.322;2023-05-25T08:24:18;7.53;;;2.90;;
18265;SDS011;9259;48.194;16.322;2023-05-25T08:26:47;3.92;;;2.15;;
18265;SDS011;9259;48.194;16.322;2023-05-25T08:29:15;4.28;;;2.30;;
18265;SDS011;9259;48.194;16.322;2023-05-25T08:31:45;6.20;;;2.83;;
18265;SDS011;9259;48.194;16.322;2023-05-25T08:34:14;4.20;;;2.58;;
18265;SDS011;9259;48.194;16.322;2023-05-25T08:36:41;6.15;;;2.00;;
18265;SDS011;9259;48.194;16.322;2023-05-25T08:39:09;3.38;;;2.10;;
18265;SDS011;9259;48.194;16.322;2023-05-25T08:41:39;4.03;;;2.33;;
18265;SDS011;9259;48.194;16.322;2023-05-25T08:44:10;3.97;;;2.22;;
18265;SDS011;9259;48.194;16.322;2023-05-25T08:46:39;5.45;;;2.30;;
18265;SDS011;9259;48.194;16.322;2023-05-25T08:49:07;6.70;;;2.42;;
18265;SDS011;9259;48.194;16.322;2023-05-25T08:51:36;5.53;;;2.40;;
18265;SDS011;9259;48.194;16.322;2023-05-25T08:54:07;6.65;;;2.30;;
18265;SDS011;9259;48.194;16.322;2023-05-25T08:56:38;5.60;;;2.45;;
18265;SDS011;9259;48.194;16.322;2023-05-25T08:59:14;6.32;;;2.40;;
18265;SDS011;9259;48.194;16.322;2023-05-25T09:01:50;5.75;;;2.60;;
18265;SDS011;9259;48.194;16.322;2023-05-25T09:04:22;3.97;;;2.45;;
18265;SDS011;9259;48.194;16.322;2023-05-25T09:06:50;4.75;;;2.50;;
18265;SDS011;9259;48.194;16.322;2023-05-25T09:09:18;4.45;;;2.60;;
18265;SDS011;9259;48.194;16.322;2023-05-25T09:11:46;6.75;;;2.40;;
18265;SDS011;9259;48.194;16.322;2023-05-25T09:14:15;4.20;;;2.33;;
18265;SDS011;9259;48.194;16.322;2023-05-25T09:16:43;4.47;;;2.33;;
18265;SDS011;9259;48.194;16.322;2023-05-25T09:19:11;8.82;;;2.63;;
18265;SDS011;9259;48.194;16.322;2023-05-25T09:21:39;4.68;;;2.30;;
18265;SDS011;9259;48.194;16.322;2023-05-25T09:24:06;5.93;;;2.65;;
18265;SDS011;9259;48.194;16.322;2023-05-25T09:26:34;6.70;;;2.28;;
18265;SDS011;9259;48.194;16.322;2023-05-25T09:29:01;4.20;;;2.20;;
18265;SDS011;9259;48.194;16.322;2023-05-25T09:31:30;2.83;;;2.20;;
18265;SDS011;9259;48.194;16.322;2023-05-25T09:33:58;3.92;;;2.35;;
18265;SDS011;9259;48.194;16.322;2023-05-25T09:36:25;6.90;;;2.92;;
18265;SDS011;9259;48.194;16.322;2023-05-25T09:38:53;3.85;;;2.10;;
18265;SDS011;9259;48.194;16.322;2023-05-25T09:41:21;3.97;;;2.40;;
18265;SDS011;9259;48.194;16.322;2023-05-25T09:43:52;3.70;;;2.38;;
18265;SDS011;9259;48.194;16.322;2023-05-25T09:46:19;4.88;;;2.70;;
18265;SDS011;9259;48.194;16.322;2023-05-25T09:48:50;5.13;;;2.60;;
18265;SDS011;9259;48.194;16.322;2023-05-25T09:51:19;5.78;;;2.80;;
18265;SDS011;9259;48.194;16.322;2023-05-25T09:53:47;5.40;;;2.58;;
18265;SDS011;9259;48.194;16.322;2023-05-25T09:56:15;4.82;;;2.53;;
18265;SDS011;9259;48.194;16.322;2023-05-25T09:58:43;10.05;;;2.80;;
18265;SDS011;9259;48.194;16.322;2023-05-25T10:01:11;5.72;;;2.30;;
18265;SDS011;9259;48.194;16.322;2023-05-25T10:03:43;4.88;;;2.60;;
18265;SDS011;9259;48.194;16.322;2023-05-25T10:06:16;4.00;;;2.20;;
18265;SDS011;9259;48.194;16.322;2023-05-25T10:08:44;5.13;;;2.67;;
18265;SDS011;9259;48.194;16.322;2023-05-25T10:11:13;5.13;;;2.70;;
18265;SDS011;9259;48.194;16.322;2023-05-25T10:13:43;8.02;;;2.78;;
18265;SDS011;9259;48.194;16.322;2023-05-25T10:16:15;4.28;;;2.42;;
18265;SDS011;9259;48.194;16.322;2023-05-25T10:18:46;7.32;;;2.92;;
18265;SDS011;9259;48.194;16.322;2023-05-25T10:21:16;4.32;;;2.10;;
18265;SDS011;9259;48.194;16.322;2023-05-25T10:23:45;3.58;;;2.13;;
18265;SDS011;9259;48.194;16.322;2023-05-25T10:26:18;4.28;;;2.40;;
18265;SDS011;9259;48.194;16.322;2023-05-25T10:28:48;5.95;;;2.42;;
18265;SDS011;9259;48.194;16.322;2023-05-25T10:31:17;6.72;;;2.85;;
18265;SDS011;9259;48.194;16.322;2023-05-25T10:33:46;4.30;;;2.17;;
18265;SDS011;9259;48.194;16.322;2023-05-25T10:36:13;3.55;;;2.00;;
18265;SDS011;9259;48.194;16.322;2023-05-25T10:38:45;4.68;;;2.03;;
18265;SDS011;9259;48.194;16.322;2023-05-25T10:41:14;5.30;;;2.40;;
18265;SDS011;9259;48.194;16.322;2023-05-25T10:43:42;5.30;;;2.20;;
18265;SDS011;9259;48.194;16.322;2023-05-25T10:46:09;7.13;;;2.08;;
18265;SDS011;9259;48.194;16.322;2023-05-25T10:48:49;2.78;;;2.05;;
18265;SDS011;9259;48.194;16.322;2023-05-25T10:51:19;4.90;;;2.17;;
18265;SDS011;9259;48.194;16.322;2023-05-25T10:53:57;4.20;;;2.40;;
18265;SDS011;9259;48.194;16.322;2023-05-25T10:56:26;5.72;;;2.55;;
18265;SDS011;9259;48.194;16.322;2023-05-25T10:58:56;6.03;;;2.30;;
18265;SDS011;9259;48.194;16.322;2023-05-25T11:01:24;4.38;;;2.20;;
18265;SDS011;9259;48.194;16.322;2023-05-25T11:03:55;4.30;;;2.35;;
18265;SDS011;9259;48.194;16.322;2023-05-25T11:09:24;3.78;;;2.35;;
18265;SDS011;9259;48.194;16.322;2023-05-25T11:12:02;3.90;;;2.50;;
18265;SDS011;9259;48.194;16.322;2023-05-25T11:14:31;3.53;;;2.35;;
18265;SDS011;9259;48.194;16.322;2023-05-25T11:17:02;4.93;;;2.83;;
18265;SDS011;9259;48.194;16.322;2023-05-25T11:19:38;4.22;;;2.17;;
18265;SDS011;9259;48.194;16.322;2023-05-25T11:22:12;5.28;;;2.15;;
18265;SDS011;9259;48.194;16.322;2023-05-25T11:24:44;5.00;;;2.70;;
18265;SDS011;9259;48.194;16.322;2023-05-25T11:27:12;3.30;;;2.20;;
18265;SDS011;9259;48.194;16.322;2023-05-25T11:29:40;5.32;;;2.80;;
18265;SDS011;9259;48.194;16.322;2023-05-25T11:32:10;4.57;;;2.15;;
18265;SDS011;9259;48.194;16.322;2023-05-25T11:34:39;6.20;;;2.47;;
18265;SDS011;9259;48.194;16.322;2023-05-25T11:37:11;5.80;;;2.40;;
18265;SDS011;9259;48.194;16.322;2023-05-25T11:39:42;3.53;;;2.10;;
18265;SDS011;9259;48.194;16.322;2023-05-25T11:42:13;5.97;;;2.53;;
18265;SDS011;9259;48.194;16.322;2023-05-25T11:44:42;5.88;;;2.67;;
18265;SDS011;9259;48.194;16.322;2023-05-25T11:47:10;4.20;;;2.05;;
18265;SDS011;9259;48.194;16.322;2023-05-25T11:49:43;5.82;;;2.58;;
18265;SDS011;9259;48.194;16.322;2023-05-25T11:52:14;6.05;;;2.20;;
18265;SDS011;9259;48.194;16.322;2023-05-25T11:54:44;4.05;;;2.17;;
18265;SDS011;9259;48.194;16.322;2023-05-25T11:57:14;4.78;;;2.22;;
18265;SDS011;9259;48.194;16.322;2023-05-25T11:59:48;3.97;;;2.28;;
18265;SDS011;9259;48.194;16.322;2023-05-25T12:02:17;4.28;;;2.17;;
18265;SDS011;9259;48.194;16.322;2023-05-25T12:04:51;4.05;;;2.53;;
18265;SDS011;9259;48.194;16.322;2023-05-25T12:07:20;4.75;;;2.17;;
18265;SDS011;9259;48.194;16.322;2023-05-25T12:09:58;4.70;;;2.25;;
18265;SDS011;9259;48.194;16.322;2023-05-25T12:12:36;5.00;;;2.40;;
18265;SDS011;9259;48.194;16.322;2023-05-25T12:15:08;4.57;;;2.47;;
18265;SDS011;9259;48.194;16.322;2023-05-25T12:17:39;3.63;;;2.38;;
18265;SDS011;9259;48.194;16.322;2023-05-25T12:20:15;4.28;;;2.33;;
18265;SDS011;9259;48.194;16.322;2023-05-25T12:22:44;5.53;;;2.50;;
18265;SDS011;9259;48.194;16.322;2023-05-25T12:25:13;4.00;;;1.92;;
18265;SDS011;9259;48.194;16.322;2023-05-25T12:27:45;3.05;;;2.10;;
18265;SDS011;9259;48.194;16.322;2023-05-25T12:30:13;3.63;;;2.20;;
18265;SDS011;9259;48.194;16.322;2023-05-25T12:32:53;6.85;;;2.58;;
18265;SDS011;9259;48.194;16.322;2023-05-25T12:35:25;5.28;;;2.22;;
18265;SDS011;9259;48.194;16.322;2023-05-25T12:38:08;4.05;;;2.45;;
18265;SDS011;9259;48.194;16.322;2023-05-25T12:40:37;5.18;;;2.30;;
18265;SDS011;9259;48.194;16.322;2023-05-25T12:43:05;4.43;;;2.13;;
18265;SDS011;9259;48.194;16.322;2023-05-25T12:45:33;4.82;;;2.78;;
18265;SDS011;9259;48.194;16.322;2023-05-25T12:48:06;4.25;;;2.42;;
18265;SDS011;9259;48.194;16.322;2023-05-25T12:50:33;3.67;;;2.33;;
18265;SDS011;9259;48.194;16.322;2023-05-25T12:53:02;5.30;;;2.22;;
18265;SDS011;9259;48.194;16.322;2023-05-25T12:55:31;5.00;;;2.50;;
18265;SDS011;9259;48.194;16.322;2023-05-25T12:58:02;3.85;;;2.03;;
18265;SDS011;9259;48.194;16.322;2023-05-25T13:00:30;5.13;;;2.35;;
18265;SDS011;9259;48.194;16.322;2023-05-25T13:02:59;5.95;;;2.55;;
18265;SDS011;9259;48.194;16.322;2023-05-25T13:05:27;4.45;;;2.42;;
18265;SDS011;9259;48.194;16.322;2023-05-25T13:07:57;3.30;;;2.33;;
18265;SDS011;9259;48.194;16.322;2023-05-25T13:10:26;4.43;;;2.33;;
18265;SDS011;9259;48.194;16.322;2023-05-25T13:12:54;3.08;;;2.08;;
18265;SDS011;9259;48.194;16.322;2023-05-25T13:15:24;5.28;;;2.70;;
18265;SDS011;9259;48.194;16.322;2023-05-25T13:17:53;2.75;;;1.92;;
18265;SDS011;9259;48.194;16.322;2023-05-25T13:20:23;4.95;;;2.20;;
18265;SDS011;9259;48.194;16.322;2023-05-25T13:22:51;4.03;;;1.90;;
18265;SDS011;9259;48.194;16.322;2023-05-25T13:25:20;3.20;;;2.13;;
18265;SDS011;9259;48.194;16.322;2023-05-25T13:27:49;3.33;;;1.95;;
18265;SDS011;9259;48.194;16.322;2023-05-25T13:30:18;4.40;;;2.10;;
18265;SDS011;9259;48.194;16.322;2023-05-25T13:32:48;8.02;;;2.40;;
18265;SDS011;9259;48.194;16.322;2023-05-25T13:35:15;3.42;;;2.00;;
18265;SDS011;9259;48.194;16.322;2023-05-25T13:37:48;4.38;;;2.13;;
18265;SDS011;9259;48.194;16.322;2023-05-25T13:40:16;4.07;;;2.53;;
18265;SDS011;9259;48.194;16.322;2023-05-25T13:42:44;3.15;;;2.20;;
18265;SDS011;9259;48.194;16.322;2023-05-25T13:45:11;3.70;;;2.35;;
18265;SDS011;9259;48.194;16.322;2023-05-25T13:47:47;4.10;;;2.58;;
18265;SDS011;9259;48.194;16.322;2023-05-25T13:50:15;4.25;;;1.88;;
18265;SDS011;9259;48.194;16.322;2023-05-25T13:52:42;4.82;;;1.92;;
18265;SDS011;9259;48.194;16.322;2023-05-25T13:55:10;4.68;;;2.10;;
18265;SDS011;9259;48.194;16.322;2023-05-25T13:57:37;2.80;;;1.75;;
18265;SDS011;9259;48.194;16.322;2023-05-25T14:00:05;3.38;;;2.33;;
18265;SDS011;9259;48.194;16.322;2023-05-25T14:02:34;3.00;;;1.90;;
18265;SDS011;9259;48.194;16.322;2023-05-25T14:05:03;3.33;;;2.00;;
18265;SDS011;9259;48.194;16.322;2023-05-25T14:07:31;3.55;;;2.00;;
18265;SDS011;9259;48.194;16.322;2023-05-25T14:09:58;4.70;;;2.08;;
18265;SDS011;9259;48.194;16.322;2023-05-25T14:12:26;5.30;;;2.47;;
18265;SDS011;9259;48.194;16.322;2023-05-25T14:14:53;3.83;;;2.00;;
18265;SDS011;9259;48.194;16.322;2023-05-25T14:17:21;3.67;;;2.08;;
18265;SDS011;9259;48.194;16.322;2023-05-25T14:19:49;5.03;;;2.05;;
18265;SDS011;9259;48.194;16.322;2023-05-25T14:22:18;3.90;;;2.15;;
18265;SDS011;9259;48.194;16.322;2023-05-25T14:24:45;4.07;;;2.05;;
18265;SDS011;9259;48.194;16.322;2023-05-25T14:27:13;4.13;;;2.03;;
18265;SDS011;9259;48.194;16.322;2023-05-25T14:29:45;3.17;;;2.30;;
18265;SDS011;9259;48.194;16.322;2023-05-25T14:32:13;2.92;;;2.20;;
18265;SDS011;9259;48.194;16.322;2023-05-25T14:34:41;4.25;;;2.08;;
18265;SDS011;9259;48.194;16.322;2023-05-25T14:37:09;4.78;;;2.13;;
18265;SDS011;9259;48.194;16.322;2023-05-25T14:39:39;5.05;;;2.50;;
18265;SDS011;9259;48.194;16.322;2023-05-25T14:42:06;5.00;;;2.10;;
18265;SDS011;9259;48.194;16.322;2023-05-25T14:44:33;4.68;;;2.28;;
18265;SDS011;9259;48.194;16.322;2023-05-25T14:47:01;2.90;;;2.15;;
18265;SDS011;9259;48.194;16.322;2023-05-25T14:49:28;3.90;;;2.28;;
18265;SDS011;9259;48.194;16.322;2023-05-25T14:51:56;5.25;;;2.55;;
18265;SDS011;9259;48.194;16.322;2023-05-25T14:54:25;4.43;;;2.50;;
18265;SDS011;9259;48.194;16.322;2023-05-25T14:56:54;3.67;;;2.40;;
18265;SDS011;9259;48.194;16.322;2023-05-25T14:59:21;4.18;;;2.20;;